Flight Track Log - Related Links

Times and Time Zones

All times are in EDT time to prevent confusion due to time zone crossing. See the N867DS flight status page for this flight to view local times or setup timezone preferences in your user account.

Time Position Orientation Groundspeed Altitude Reporting Facility
EDT Latitude Longitude Course Direction KTS km/h meters Rate Location/Type
Fri 19:04:11 28.0000 -82.2833 139° Southeast 93 172 732  Level Tampa TRACON
Fri 19:05:23 27.9667 -82.2500 139° Southeast 88 163 1,006 233 Climbing Tampa TRACON
Fri 19:05:53 27.9667 -82.2500 139° Southeast 87 161 1,128 215 Climbing Tampa TRACON
Fri 19:07:05 27.9667 -82.2167 90° East 88 163 1,372 180 Climbing Tampa TRACON
Fri 19:08:05 27.9667 -82.1833 90° East 95 175 1,524 76 Climbing Tampa TRACON
Fri 19:09:05 27.9500 -82.1500 120° Southeast 129 238 1,524  Level Tampa TRACON
Fri 19:10:05 27.9333 -82.1167 120° Southeast 124 230 1,524  Level Tampa TRACON
Fri 19:12:32 27.9031 -82.0253 111° Southeast 131 243 1,524  Level Miami Center
Fri 19:13:32 27.8897 -81.9872 112° Southeast 131 243 1,524  Level Miami Center
Fri 19:14:32 27.8700 -81.9581 127° Southeast 131 243 1,524  Level Miami Center
Fri 19:15:32 27.8325 -81.9542 175° South 119 220 1,524  Level Miami Center
Fri 19:16:32 27.7956 -81.9383 159° South 140 259 1,524  Level Miami Center
Fri 19:17:32 27.7717 -81.9092 133° Southeast 127 235 1,524  Level Miami Center
Fri 19:18:32 27.7456 -81.8800 135° Southeast 134 248 1,524  Level Miami Center
Fri 19:19:32 27.7256 -81.8533 130° Southeast 134 248 1,524  Level Miami Center
Fri 19:20:32 27.7014 -81.8242 133° Southeast 134 248 1,524  Level Miami Center
Fri 19:21:32 27.6733 -81.7900 133° Southeast 129 238 1,524  Level Miami Center
Fri 19:22:32 27.6494 -81.7583 130° Southeast 129 238 1,524  Level Miami Center
Fri 19:23:32 27.6256 -81.7294 133° Southeast 129 238 1,524  Level Miami Center
Fri 19:24:32 27.6033 -81.7003 131° Southeast 129 238 1,524  Level Miami Center
Fri 19:25:32 27.5794 -81.6711 133° Southeast 129 238 1,524  Level Miami Center
Fri 19:26:32 27.5553 -81.6419 133° Southeast 129 238 1,524  Level Miami Center
Fri 19:27:32 27.5292 -81.6106 133° Southeast 129 238 1,524  Level Miami Center
Fri 19:28:32 27.5050 -81.5814 133° Southeast 129 238 1,524  Level Miami Center
Fri 19:29:32 27.4792 -81.5478 131° Southeast 129 238 1,524  Level Miami Center
Fri 19:30:32 27.4550 -81.5186 133° Southeast 129 238 1,524  Level Miami Center
Fri 19:31:32 27.4289 -81.4847 131° Southeast 129 238 1,524  Level Miami Center
Fri 19:32:32 27.4047 -81.4558 133° Southeast 129 238 1,524  Level Miami Center
Fri 19:33:32 27.3786 -81.4244 133° Southeast 135 249 1,524  Level Miami Center
Fri 19:34:32 27.3544 -81.3953 133° Southeast 135 249 1,524  Level Miami Center
Fri 19:35:32 27.3286 -81.3592 129° Southeast 135 249 1,524  Level Miami Center
Fri 19:36:32 27.3025 -81.3278 133° Southeast 135 249 1,524  Level Miami Center
Fri 19:37:32 27.2783 -81.2989 133° Southeast 135 249 1,524  Level Miami Center
Fri 19:38:32 27.2583 -81.2700 128° Southeast 129 238 1,524  Level Miami Center
Fri 19:39:32 27.2322 -81.2364 131° Southeast 129 238 1,524  Level Miami Center
Fri 19:40:32 27.2058 -81.2072 135° Southeast 129 238 1,524  Level Miami Center
Fri 19:41:32 27.1797 -81.1783 135° Southeast 129 238 1,524  Level Miami Center
Fri 19:42:32 27.1594 -81.1497 129° Southeast 129 238 1,524  Level Miami Center
Fri 19:43:32 27.1333 -81.1183 133° Southeast 129 238 1,524  Level Miami Center
Fri 19:44:32 27.1050 -81.0847 133° Southeast 129 238 1,524  Level Miami Center
Fri 19:45:32 27.0808 -81.0558 133° Southeast 134 248 1,524  Level Miami Center
Fri 19:46:44 27.0547 -81.0200 129° Southeast 134 248 1,524  Level Miami Center
Fri 19:47:44 27.0264 -80.9886 135° Southeast 134 248 1,524  Level Miami Center
Fri 19:48:44 27.0064 -80.9622 130° Southeast 134 248 1,524  Level Miami Center
Fri 19:49:44 26.9761 -80.9261 133° Southeast 134 248 1,524  Level Miami Center
Fri 19:50:44 26.9497 -80.8972 136° Southeast 134 248 1,524  Level Miami Center
Fri 19:51:44 26.9275 -80.8661 129° Southeast 145 269 1,524  Level Miami Center
Fri 19:52:44 26.8992 -80.8328 134° Southeast 145 269 1,524  Level Miami Center
Fri 19:53:44 26.8731 -80.7992 131° Southeast 145 269 1,524  Level Miami Center
Fri 19:54:44 26.8572 -80.7636 117° Southeast 139 257 1,524 -91 Level Miami Center
Fri 19:55:44 26.8542 -80.7242 95° East 130 241 1,341 -198 Descending Miami Center
Fri 19:56:44 26.8492 -80.6750 96° East 144 267 1,128 -198 Descending Miami Center
Fri 19:57:44 26.8442 -80.6331 98° East 139 257 945 -168 Descending Miami Center
Fri 19:58:44 26.8408 -80.5933 95° East 139 257 792 290 Descending Miami Center
Fri 19:59:44 26.8397 -80.5583 92° East 127 235 1,524 -15 Climbing Miami Center
Fri 20:00:44 26.8344 -80.5233 100° East 117 217 762 -381 Descending Miami Center
Fri 20:01:44 26.8289 -80.4881 100° East 111 206 762 381 Level Miami Center
Fri 20:02:44 26.8256 -80.4531 96° East 111 206 1,524 381 Climbing Miami Center
Fri 20:03:44 26.8203 -80.4181 100° East 111 206 1,524  Level Miami Center
Fri 20:04:44 26.8186 -80.3969 95° East 111 206 1,524  Level Miami Center
Fri 20:06:00 26.8262 -80.3472 80° East  Level FlightAware Approximate
Fri 20:13:00 26.8333 -80.2167 90° East  Level FlightAware Approximate
Fri 20:14:00 26.8459 -80.2223 90° East  Level Estimated
Fri 20:15:00 26.8459 -80.2223 90° East  Level Estimated
Fri 20:16:00 26.8459 -80.2223 90° East  Level Estimated
Fri 20:17:00 26.8459 -80.2223 90° East  Level Estimated
Fri 20:18:00 26.8459 -80.2223 90° East  Level Estimated
Fri 20:19:00 26.8459 -80.2223 90° East  Level Estimated
Fri 20:20:00 26.8459 -80.2223 90° East  Level Estimated
Fri 20:21:00 26.8459 -80.2223 90° East  Level Estimated
Fri 20:22:00 26.8459 -80.2223 90° East  Level Estimated
Fri 20:23:00 26.8459 -80.2223 90° East  Level Estimated
Fri 20:24:00 26.8459 -80.2223 90° East  Level Estimated
Fri 20:25:00 26.8459 -80.2223 90° East  Level Estimated
Fri 20:26:00 26.8459 -80.2223 90° East  Level Estimated
Fri 20:27:00 26.8459 -80.2223 90° East  Level Estimated
Fri 20:28:00 26.8459 -80.2223 90° East  Level Estimated
Fri 20:29:00 26.8459 -80.2223 90° East  Level Estimated
Fri 20:30:00 26.8459 -80.2223 90° East  Level Estimated
Fri 20:31:00 26.8459 -80.2223 90° East  Level Estimated
Fri 20:32:00 26.8459 -80.2223 90° East  Level Estimated

Login

Don't have an account? Register now (free) for customized features, flight alerts, and more!